Time;durP1;ratioP1;P1;durP2;ratioP2;P2;SDS_P1;SDS_P2;PMS_P1;PMS_P2;Temp;Humidity;BMP_temperature;BMP_pressure;BME280_temperature;BME280_humidity;BME280_pressure;Samples;Min_cycle;Max_cycle;Signal;HPM_P1;HPM_P2
2021/06/12 00:00:30;;;;;;;8.15;5.47;;;22.90;63.50;;;;;;2316864;55;20998;-65
2021/06/12 00:03:07;;;;;;;6.25;4.25;;;22.90;63.60;;;;;;2316515;55;20943;-67
2021/06/12 00:05:33;;;;;;;5.12;3.78;;;22.80;63.60;;;;;;2320355;54;21072;-70
2021/06/12 00:08:00;;;;;;;4.70;3.30;;;22.80;63.80;;;;;;2306403;54;21067;-69
2021/06/12 00:10:28;;;;;;;7.25;3.30;;;22.80;63.80;;;;;;2300000;54;20959;-66
2021/06/12 00:12:57;;;;;;;4.62;3.22;;;22.80;63.80;;;;;;2317049;55;21030;-66
2021/06/12 00:15:24;;;;;;;4.70;3.53;;;22.70;63.80;;;;;;2338498;53;20997;-66
2021/06/12 00:17:50;;;;;;;4.37;3.12;;;22.70;63.90;;;;;;2315074;54;21387;-66
2021/06/12 00:20:30;;;;;;;4.12;3.05;;;22.60;63.80;;;;;;2316442;55;21771;-71
2021/06/12 00:22:58;;;;;;;4.15;3.05;;;22.60;63.80;;;;;;2320877;54;20979;-72
2021/06/12 00:25:26;;;;;;;4.28;3.05;;;22.60;64.70;;;;;;2312778;54;21010;-66
2021/06/12 00:27:54;;;;;;;5.93;3.55;;;22.50;63.80;;;;;;2316218;54;21008;-68
2021/06/12 00:30:22;;;;;;;4.00;3.00;;;22.50;63.90;;;;;;2319177;54;20984;-66
2021/06/12 00:32:48;;;;;;;4.35;2.80;;;22.50;64.10;;;;;;2316147;54;20968;-66
2021/06/12 00:35:14;;;;;;;7.68;3.17;;;22.50;64.10;;;;;;2553485;53;20919;-66
2021/06/12 00:37:41;;;;;;;4.93;3.37;;;22.40;64.00;;;;;;2320807;54;20985;-70
2021/06/12 00:40:08;;;;;;;4.25;3.40;;;22.40;64.10;;;;;;2308778;54;20951;-72
2021/06/12 00:42:37;;;;;;;4.20;3.30;;;22.40;64.20;;;;;;2319880;54;20885;-71
2021/06/12 00:45:08;;;;;;;4.45;3.45;;;22.40;64.10;;;;;;2309888;54;21047;-70
2021/06/12 00:47:36;;;;;;;4.37;3.60;;;22.40;64.20;;;;;;2314187;54;21012;-68
2021/06/12 00:50:03;;;;;;;7.53;4.28;;;22.40;64.50;;;;;;2307670;54;20940;-68
2021/06/12 00:52:30;;;;;;;4.85;3.78;;;22.30;64.50;;;;;;2316973;54;20951;-71
2021/06/12 00:54:56;;;;;;;4.28;3.25;;;22.30;64.50;;;;;;2317344;55;20963;-66
2021/06/12 00:57:25;;;;;;;4.70;3.67;;;22.30;64.60;;;;;;2551520;53;20961;-66
2021/06/12 00:59:52;;;;;;;4.78;3.37;;;22.30;64.70;;;;;;2316808;55;21836;-73
2021/06/12 01:02:18;;;;;;;4.87;3.50;;;22.20;64.70;;;;;;2499659;53;21023;-73
2021/06/12 01:04:45;;;;;;;4.53;3.50;;;22.20;64.70;;;;;;2454486;54;20951;-67
2021/06/12 01:07:11;;;;;;;4.20;3.45;;;22.20;64.80;;;;;;2554738;53;20968;-73
2021/06/12 01:09:37;;;;;;;4.32;3.25;;;22.20;64.80;;;;;;2319639;54;21076;-72
2021/06/12 01:12:28;;;;;;;3.92;3.10;;;22.10;64.80;;;;;;2412989;53;20959;-70
2021/06/12 01:14:59;;;;;;;4.65;3.45;;;22.10;64.70;;;;;;2443936;53;21003;-68
2021/06/12 01:17:54;;;;;;;5.40;3.50;;;22.10;65.00;;;;;;2317114;54;20978;-70
2021/06/12 01:21:02;;;;;;;5.25;3.33;;;22.10;64.40;;;;;;2317135;55;21014;-71
2021/06/12 01:25:23;;;;;;;4.72;3.62;;;22.10;64.40;;;;;;2318511;54;20961;-73
2021/06/12 01:29:42;;;;;;;5.28;3.42;;;22.00;64.60;;;;;;2321204;54;20968;-70
2021/06/12 01:32:08;;;;;;;3.87;2.92;;;22.00;64.50;;;;;;2316973;54;21732;-73
2021/06/12 01:34:34;;;;;;;5.05;3.40;;;21.90;65.30;;;;;;2316379;55;21979;-69
2021/06/12 01:37:01;;;;;;;5.47;3.45;;;21.90;65.50;;;;;;2316857;54;21004;-69
2021/06/12 01:39:28;;;;;;;6.00;3.72;;;21.80;65.50;;;;;;2316679;54;20948;-68
2021/06/12 01:41:56;;;;;;;4.57;3.28;;;21.70;65.50;;;;;;2317282;54;21025;-69
2021/06/12 01:44:22;;;;;;;5.15;3.62;;;21.70;65.70;;;;;;2314613;54;20955;-73
2021/06/12 01:46:49;;;;;;;4.65;3.62;;;21.70;65.70;;;;;;2316592;55;20963;-68
2021/06/12 01:49:15;;;;;;;5.30;3.92;;;21.70;65.80;;;;;;2316533;55;20947;-68
2021/06/12 01:51:41;;;;;;;5.47;3.65;;;21.70;65.90;;;;;;2318945;54;20929;-69
2021/06/12 01:54:07;;;;;;;4.62;3.50;;;21.60;65.90;;;;;;2305183;53;21031;-68
2021/06/12 01:56:36;;;;;;;4.68;3.47;;;21.60;66.70;;;;;;2388994;53;20947;-73
2021/06/12 01:59:02;;;;;;;4.90;3.58;;;21.60;66.10;;;;;;2442189;53;21801;-72
2021/06/12 02:01:28;;;;;;;4.00;3.10;;;21.50;66.00;;;;;;2316561;55;20970;-68
2021/06/12 02:03:55;;;;;;;3.97;3.15;;;21.50;66.10;;;;;;2317176;54;20969;-70
2021/06/12 02:06:21;;;;;;;4.20;3.40;;;21.50;66.20;;;;;;2358541;54;20952;-73
2021/06/12 02:08:47;;;;;;;4.12;3.40;;;21.50;67.10;;;;;;2316658;54;20935;-68
2021/06/12 02:11:15;;;;;;;4.32;3.53;;;21.50;66.40;;;;;;2316905;55;21026;-69
2021/06/12 02:13:42;;;;;;;4.90;3.62;;;21.50;67.10;;;;;;2316972;55;21733;-68
2021/06/12 02:16:08;;;;;;;5.75;3.33;;;21.50;66.40;;;;;;2317251;55;21113;-72
2021/06/12 02:18:35;;;;;;;4.90;3.80;;;21.40;66.40;;;;;;2377447;53;20971;-68
2021/06/12 02:21:01;;;;;;;6.12;3.37;;;21.40;66.60;;;;;;2316888;54;20959;-73
2021/06/12 02:23:28;;;;;;;3.85;2.97;;;21.40;66.70;;;;;;2316669;54;20987;-69
2021/06/12 02:25:54;;;;;;;4.57;3.17;;;21.40;66.70;;;;;;2358459;54;20958;-72
2021/06/12 02:28:21;;;;;;;4.00;3.03;;;21.40;66.90;;;;;;2491530;53;20951;-73
2021/06/12 02:31:03;;;;;;;3.60;2.70;;;21.40;66.90;;;;;;2316805;54;21421;-73
2021/06/12 02:33:30;;;;;;;4.30;3.20;;;21.30;66.60;;;;;;2317170;54;20950;-68
2021/06/12 02:35:56;;;;;;;5.32;3.65;;;21.30;66.90;;;;;;2316370;54;21738;-74
2021/06/12 02:38:23;;;;;;;4.20;3.22;;;21.30;66.90;;;;;;2319576;54;21490;-68
2021/06/12 02:40:52;;;;;;;7.85;3.97;;;21.30;67.00;;;;;;2303880;54;21730;-68
2021/06/12 02:43:18;;;;;;;4.75;3.37;;;21.20;66.90;;;;;;2315583;54;21388;-69
2021/06/12 02:45:45;;;;;;;4.40;3.40;;;21.30;67.00;;;;;;2321156;54;20981;-71
2021/06/12 02:48:16;;;;;;;3.92;3.05;;;21.20;67.00;;;;;;2302369;54;21015;-73
2021/06/12 02:50:43;;;;;;;5.43;3.30;;;21.20;66.90;;;;;;2316500;54;20948;-69
2021/06/12 02:53:10;;;;;;;6.12;3.10;;;21.20;67.10;;;;;;2556816;53;21075;-69
2021/06/12 02:55:38;;;;;;;4.00;3.08;;;21.20;67.10;;;;;;2317098;55;20947;-68
2021/06/12 02:58:05;;;;;;;5.40;3.10;;;21.20;67.10;;;;;;2321477;54;21000;-68
2021/06/12 03:00:34;;;;;;;3.72;3.00;;;21.20;67.20;;;;;;2298786;53;21100;-72
2021/06/12 03:03:00;;;;;;;4.32;3.28;;;21.20;67.20;;;;;;2357204;53;21049;-68
2021/06/12 03:05:31;;;;;;;4.30;3.30;;;21.10;67.20;;;;;;2303682;54;21353;-68
2021/06/12 03:07:58;;;;;;;6.22;3.40;;;21.10;67.20;;;;;;2317323;54;21014;-68
2021/06/12 03:10:29;;;;;;;4.07;3.40;;;21.10;67.30;;;;;;2294186;54;21415;-68
2021/06/12 03:12:55;;;;;;;4.53;3.45;;;21.10;67.20;;;;;;2352495;54;20979;-68
2021/06/12 03:15:22;;;;;;;4.25;3.28;;;21.10;67.30;;;;;;2318162;54;20927;-68
2021/06/12 03:17:48;;;;;;;4.12;3.08;;;21.00;67.20;;;;;;2321642;54;21758;-72
2021/06/12 03:20:18;;;;;;;5.62;3.87;;;21.00;67.30;;;;;;2314236;54;20981;-68
2021/06/12 03:22:48;;;;;;;6.32;3.60;;;21.00;67.40;;;;;;2316374;54;21004;-68
2021/06/12 03:25:15;;;;;;;5.57;4.22;;;21.10;67.50;;;;;;2316585;55;20936;-68
2021/06/12 03:27:42;;;;;;;5.45;4.00;;;21.00;67.50;;;;;;2315888;54;20967;-70
2021/06/12 03:30:12;;;;;;;6.35;3.90;;;20.90;67.50;;;;;;2316701;54;20947;-69
2021/06/12 03:32:41;;;;;;;5.72;4.45;;;21.00;67.50;;;;;;2316729;54;20912;-68
2021/06/12 03:35:10;;;;;;;4.65;3.42;;;20.90;67.50;;;;;;2316965;54;20947;-71
2021/06/12 03:37:42;;;;;;;5.12;3.67;;;20.90;67.50;;;;;;2317114;54;20935;-68
2021/06/12 03:40:11;;;;;;;6.62;4.00;;;20.90;67.70;;;;;;2315082;55;20951;-69
2021/06/12 03:42:38;;;;;;;5.30;3.80;;;20.90;67.80;;;;;;2317034;54;21017;-68
2021/06/12 03:45:07;;;;;;;7.90;3.72;;;20.80;67.80;;;;;;2316151;54;21050;-71
2021/06/12 03:47:33;;;;;;;4.72;3.70;;;20.80;67.90;;;;;;2317041;55;20963;-72
2021/06/12 03:50:00;;;;;;;4.50;3.60;;;20.80;68.00;;;;;;2294448;54;20939;-68
2021/06/12 03:52:28;;;;;;;4.72;3.40;;;20.80;68.00;;;;;;2316882;55;20931;-68
2021/06/12 03:54:56;;;;;;;4.53;3.45;;;20.80;68.10;;;;;;2557204;53;20983;-70
2021/06/12 03:57:22;;;;;;;4.43;3.35;;;20.80;68.10;;;;;;2527574;53;21509;-68
2021/06/12 03:59:48;;;;;;;5.65;3.42;;;20.80;68.20;;;;;;2316308;54;20965;-70
2021/06/12 04:02:15;;;;;;;4.57;3.45;;;20.80;68.30;;;;;;2317319;55;20948;-68
2021/06/12 04:04:45;;;;;;;4.75;3.22;;;20.80;68.30;;;;;;2317085;54;20995;-68
2021/06/12 04:07:17;;;;;;;5.00;3.67;;;20.80;68.30;;;;;;2316869;54;21470;-68
2021/06/12 04:09:44;;;;;;;5.57;3.55;;;20.80;68.40;;;;;;2316844;54;21396;-70
2021/06/12 04:12:11;;;;;;;4.32;3.15;;;20.80;68.40;;;;;;2317008;54;20947;-68
2021/06/12 04:14:37;;;;;;;5.40;3.55;;;20.80;68.40;;;;;;2324089;54;21001;-71
2021/06/12 04:17:04;;;;;;;4.10;3.20;;;20.80;68.40;;;;;;2301675;53;20947;-68
2021/06/12 04:19:30;;;;;;;6.97;4.12;;;20.80;68.50;;;;;;2294722;54;20987;-69
2021/06/12 04:21:56;;;;;;;5.95;3.87;;;20.80;68.50;;;;;;2320242;54;21016;-70
2021/06/12 04:24:22;;;;;;;4.93;4.30;;;20.80;68.50;;;;;;2417711;54;21062;-72
2021/06/12 04:26:55;;;;;;;4.62;3.65;;;20.80;68.50;;;;;;2320812;55;20982;-68
2021/06/12 04:29:21;;;;;;;;;;;20.80;68.40;;;;;;2319985;54;21129;-69
2021/06/12 04:31:47;;;;;;;5.43;3.58;;;20.80;67.90;;;;;;2317437;54;20068;-68
2021/06/12 04:34:13;;;;;;;4.43;3.45;;;20.80;68.70;;;;;;2316769;54;20963;-68
2021/06/12 04:36:40;;;;;;;4.82;3.10;;;20.80;68.80;;;;;;2316943;55;20968;-69
2021/06/12 04:39:06;;;;;;;5.95;3.65;;;20.70;68.90;;;;;;2317377;54;20968;-68
2021/06/12 04:41:32;;;;;;;6.00;3.62;;;20.70;68.90;;;;;;2318307;54;21016;-71
2021/06/12 04:43:59;;;;;;;6.25;3.62;;;20.80;69.10;;;;;;2318609;54;21815;-68
2021/06/12 04:46:26;;;;;;;4.47;3.47;;;20.80;69.10;;;;;;2316805;54;20923;-70
2021/06/12 04:48:52;;;;;;;5.37;3.30;;;20.80;69.20;;;;;;2316537;54;21572;-73
2021/06/12 04:51:18;;;;;;;5.15;3.30;;;20.80;69.30;;;;;;2317739;54;21030;-68
2021/06/12 04:53:45;;;;;;;4.00;3.05;;;20.80;69.40;;;;;;2318632;54;21351;-67
2021/06/12 04:56:11;;;;;;;6.87;3.30;;;20.80;69.40;;;;;;2315378;54;21566;-68
2021/06/12 04:58:37;;;;;;;5.15;3.45;;;20.90;69.70;;;;;;2317154;54;20943;-72
2021/06/12 05:01:04;;;;;;;5.40;4.05;;;20.90;69.80;;;;;;2317215;54;21002;-75
2021/06/12 05:03:30;;;;;;;5.18;3.45;;;20.90;69.80;;;;;;2317702;54;20964;-69
2021/06/12 05:05:57;;;;;;;4.82;3.60;;;20.90;69.90;;;;;;2315112;54;20955;-68
2021/06/12 05:08:25;;;;;;;5.60;3.47;;;21.00;70.10;;;;;;2317234;54;20967;-73
2021/06/12 05:10:51;;;;;;;5.40;3.20;;;21.00;70.20;;;;;;2316544;54;20972;-68
2021/06/12 05:13:17;;;;;;;4.18;2.87;;;21.10;70.40;;;;;;2321619;55;20989;-68
2021/06/12 05:15:43;;;;;;;5.10;3.08;;;21.10;70.50;;;;;;2303712;54;20988;-68
2021/06/12 05:18:13;;;;;;;4.68;3.20;;;21.20;70.70;;;;;;2553421;53;21713;-69
2021/06/12 05:20:39;;;;;;;4.35;2.80;;;21.20;70.70;;;;;;2317932;54;20967;-69
2021/06/12 05:23:40;;;;;;;4.37;2.95;;;21.30;70.80;;;;;;2317378;54;21860;-67
2021/06/12 05:26:06;;;;;;;3.92;2.72;;;21.40;70.40;;;;;;2385789;54;21043;-68
2021/06/12 05:28:33;;;;;;;4.18;2.53;;;21.40;70.90;;;;;;2551923;53;21032;-69
2021/06/12 05:30:59;;;;;;;3.67;2.40;;;21.50;71.00;;;;;;2557578;53;20923;-74
2021/06/12 05:33:28;;;;;;;5.18;2.47;;;21.60;71.20;;;;;;2506022;54;20947;-68
2021/06/12 05:35:56;;;;;;;3.80;2.83;;;21.70;71.40;;;;;;2557165;53;20916;-68
2021/06/12 05:38:25;;;;;;;3.60;2.70;;;21.70;71.40;;;;;;2316618;54;21001;-68
2021/06/12 05:40:51;;;;;;;3.45;2.33;;;21.80;71.40;;;;;;2317507;54;20983;-68
2021/06/12 05:43:18;;;;;;;4.95;2.72;;;21.90;71.50;;;;;;2320866;54;21484;-71
2021/06/12 05:45:44;;;;;;;3.90;2.70;;;22.00;71.60;;;;;;2543434;53;21396;-70
2021/06/12 05:48:14;;;;;;;4.25;2.95;;;22.10;71.70;;;;;;2310030;54;20965;-73
2021/06/12 05:50:44;;;;;;;4.10;2.90;;;22.20;71.50;;;;;;2317217;54;20951;-69
2021/06/12 05:53:10;;;;;;;4.55;3.05;;;22.30;71.60;;;;;;2318650;53;20931;-71
2021/06/12 05:55:36;;;;;;;4.10;2.87;;;22.40;71.70;;;;;;2317015;55;21523;-73
2021/06/12 05:58:02;;;;;;;5.65;3.28;;;22.50;71.60;;;;;;2316725;54;20940;-68
2021/06/12 06:00:29;;;;;;;4.62;3.05;;;22.50;71.50;;;;;;2316488;55;20956;-72
2021/06/12 06:02:55;;;;;;;4.45;3.33;;;22.60;71.50;;;;;;2316880;54;21106;-69
2021/06/12 06:05:22;;;;;;;5.05;4.10;;;22.70;71.50;;;;;;2317006;55;21003;-69
2021/06/12 06:07:48;;;;;;;5.60;4.03;;;22.80;71.40;;;;;;2316877;55;20931;-69
2021/06/12 06:10:15;;;;;;;6.10;4.20;;;22.90;71.10;;;;;;2319091;54;20952;-69
2021/06/12 06:12:41;;;;;;;6.55;4.45;;;23.00;71.10;;;;;;2314439;54;20959;-75
2021/06/12 06:15:10;;;;;;;5.40;4.00;;;23.10;70.90;;;;;;2316525;54;21027;-70
2021/06/12 06:17:38;;;;;;;5.15;4.05;;;23.10;70.70;;;;;;2473126;53;21489;-69
2021/06/12 06:20:07;;;;;;;4.87;3.78;;;23.20;70.60;;;;;;2537974;53;20983;-69
2021/06/12 06:22:35;;;;;;;5.93;4.60;;;23.30;70.50;;;;;;2316973;54;21010;-72
2021/06/12 06:25:03;;;;;;;6.57;4.80;;;23.40;70.60;;;;;;2320056;54;21032;-67
2021/06/12 06:27:31;;;;;;;4.97;4.15;;;23.40;70.40;;;;;;2309232;53;20997;-68
2021/06/12 06:29:57;;;;;;;5.68;4.40;;;23.50;70.40;;;;;;2557134;53;21098;-67
2021/06/12 06:32:24;;;;;;;5.05;4.22;;;23.60;70.30;;;;;;2318493;54;21604;-74
2021/06/12 06:34:50;;;;;;;6.32;4.55;;;23.60;70.10;;;;;;2552186;53;20984;-69
2021/06/12 06:37:17;;;;;;;4.47;3.72;;;23.70;70.30;;;;;;2552810;53;20927;-69
2021/06/12 06:39:43;;;;;;;5.93;3.87;;;23.80;70.20;;;;;;2316053;54;20945;-72
2021/06/12 06:42:09;;;;;;;5.22;4.03;;;23.80;69.90;;;;;;2557035;53;20983;-69
2021/06/12 06:44:36;;;;;;;4.87;3.92;;;23.90;69.80;;;;;;2316305;54;20987;-69
2021/06/12 06:47:06;;;;;;;6.95;4.15;;;24.00;69.80;;;;;;2320656;54;20978;-69
2021/06/12 06:49:34;;;;;;;5.50;4.72;;;24.10;69.40;;;;;;2541634;53;21028;-65
2021/06/12 06:52:01;;;;;;;5.55;4.50;;;24.10;69.40;;;;;;2536170;53;21000;-70
2021/06/12 06:54:28;;;;;;;5.30;4.47;;;24.20;70.20;;;;;;2312105;54;21006;-68
2021/06/12 06:56:54;;;;;;;6.15;4.37;;;24.30;69.40;;;;;;2557684;53;21236;-71
2021/06/12 06:59:21;;;;;;;5.05;4.35;;;24.30;69.40;;;;;;2316435;53;21058;-68
2021/06/12 07:01:50;;;;;;;7.68;4.93;;;24.40;69.40;;;;;;2297362;54;21001;-67
2021/06/12 07:04:16;;;;;;;6.32;5.40;;;24.50;68.70;;;;;;2313434;54;21011;-67
2021/06/12 07:06:42;;;;;;;6.93;5.22;;;24.60;68.90;;;;;;2316734;54;22038;-69
2021/06/12 07:09:08;;;;;;;5.87;4.82;;;24.70;68.40;;;;;;2316636;54;20939;-69
2021/06/12 07:11:37;;;;;;;5.97;5.37;;;24.80;68.00;;;;;;2496967;53;2410833;-67
2021/06/12 07:14:03;;;;;;;5.57;4.55;;;24.80;67.40;;;;;;2318018;54;21004;-71
2021/06/12 07:16:29;;;;;;;6.60;5.00;;;24.90;67.70;;;;;;2313320;54;20959;-68
2021/06/12 07:18:57;;;;;;;5.40;4.65;;;25.00;67.10;;;;;;2316190;54;21008;-72
2021/06/12 07:21:23;;;;;;;5.70;4.75;;;25.00;66.80;;;;;;2314510;54;21022;-67
2021/06/12 07:23:49;;;;;;;5.53;4.78;;;25.10;67.10;;;;;;2320345;54;20963;-69
2021/06/12 07:26:15;;;;;;;6.47;5.65;;;25.20;67.00;;;;;;2315263;54;20947;-68
2021/06/12 07:28:42;;;;;;;5.70;4.80;;;25.20;67.00;;;;;;2313853;54;20988;-68
2021/06/12 07:31:11;;;;;;;5.12;4.60;;;25.30;67.20;;;;;;2311891;54;20935;-72
2021/06/12 07:33:37;;;;;;;7.05;5.55;;;25.40;66.80;;;;;;2317066;55;21023;-67
2021/06/12 07:36:04;;;;;;;6.90;5.45;;;25.40;66.40;;;;;;2316737;54;20948;-73
2021/06/12 07:38:32;;;;;;;7.53;4.72;;;25.50;66.30;;;;;;2293818;54;20991;-68
2021/06/12 07:40:59;;;;;;;6.97;4.45;;;25.60;66.50;;;;;;2317024;55;21456;-69
2021/06/12 07:43:27;;;;;;;6.22;4.75;;;25.60;66.70;;;;;;2557009;53;20987;-70
2021/06/12 07:45:53;;;;;;;6.78;5.22;;;25.70;66.80;;;;;;2316847;54;20939;-69
2021/06/12 07:48:19;;;;;;;6.87;5.65;;;25.80;66.60;;;;;;2316657;55;20987;-69
2021/06/12 07:50:45;;;;;;;5.60;4.85;;;25.80;66.30;;;;;;2316718;54;20951;-69
2021/06/12 07:53:12;;;;;;;6.03;5.22;;;25.90;66.40;;;;;;2316536;54;21032;-68
2021/06/12 07:55:40;;;;;;;8.70;5.25;;;26.00;66.30;;;;;;2317320;54;20964;-69
2021/06/12 07:58:06;;;;;;;5.95;5.05;;;26.00;66.10;;;;;;2315287;54;21519;-74
2021/06/12 08:00:33;;;;;;;6.32;5.15;;;26.10;66.40;;;;;;2460997;53;21044;-68
2021/06/12 08:02:59;;;;;;;4.97;4.25;;;26.20;66.00;;;;;;2316506;54;20951;-70
2021/06/12 08:05:26;;;;;;;5.05;4.50;;;26.30;66.10;;;;;;2318316;54;21050;-68
2021/06/12 08:07:56;;;;;;;5.12;4.45;;;26.40;66.00;;;;;;2316538;55;20919;-70
2021/06/12 08:10:22;;;;;;;5.87;4.12;;;26.40;65.70;;;;;;2319162;54;21036;-72
2021/06/12 08:12:48;;;;;;;4.70;4.00;;;26.50;65.80;;;;;;2313599;54;21011;-67
2021/06/12 08:15:15;;;;;;;5.20;3.80;;;26.60;65.90;;;;;;2316392;54;21003;-66
2021/06/12 08:17:43;;;;;;;5.60;4.03;;;26.70;65.90;;;;;;2316310;54;20997;-67
2021/06/12 08:20:10;;;;;;;4.72;3.85;;;26.70;65.70;;;;;;2321003;53;20958;-68
2021/06/12 08:22:36;;;;;;;6.75;4.40;;;26.80;65.10;;;;;;2311042;54;21008;-68
2021/06/12 08:25:06;;;;;;;6.28;4.03;;;26.80;64.00;;;;;;2313822;53;20939;-70
2021/06/12 08:27:32;;;;;;;5.28;3.75;;;26.90;63.70;;;;;;2320077;55;20955;-67
2021/06/12 08:29:59;;;;;;;4.28;3.42;;;26.90;64.50;;;;;;2316864;54;20984;-67
2021/06/12 08:32:27;;;;;;;4.25;3.58;;;27.00;64.80;;;;;;2316902;55;22004;-72
2021/06/12 08:34:53;;;;;;;6.60;4.35;;;27.10;64.60;;;;;;2316645;54;21451;-67
2021/06/12 08:37:22;;;;;;;5.07;4.10;;;27.20;64.00;;;;;;2557351;53;21432;-68
2021/06/12 08:39:50;;;;;;;5.12;3.72;;;27.20;64.00;;;;;;2316598;54;20977;-71
2021/06/12 08:42:17;;;;;;;6.70;3.87;;;27.30;64.30;;;;;;2316230;54;20962;-69
2021/06/12 08:44:44;;;;;;;5.25;4.00;;;27.30;64.30;;;;;;2316834;55;20939;-68
2021/06/12 08:47:13;;;;;;;4.43;3.42;;;27.40;64.20;;;;;;2316830;54;20995;-70
2021/06/12 08:56:48;;;;;;;4.50;3.45;;;27.70;62.20;;;;;;2314756;54;21481;-67
2021/06/12 08:59:15;;;;;;;4.82;3.62;;;27.70;63.90;;;;;;2315994;54;21041;-69
2021/06/12 09:01:43;;;;;;;4.18;3.40;;;27.80;63.70;;;;;;2316452;55;20959;-68
2021/06/12 09:04:09;;;;;;;4.53;3.28;;;27.90;63.70;;;;;;2318984;54;20966;-70
2021/06/12 09:06:35;;;;;;;4.57;2.80;;;27.90;63.50;;;;;;2316877;55;20951;-71
2021/06/12 09:09:02;;;;;;;3.87;3.22;;;28.00;63.30;;;;;;2463935;53;21428;-68
2021/06/12 09:11:33;;;;;;;4.53;3.35;;;28.00;63.30;;;;;;2512641;53;21473;-67
2021/06/12 09:14:03;;;;;;;3.95;3.00;;;28.10;62.90;;;;;;2550717;53;20939;-72
2021/06/12 09:16:41;;;;;;;3.50;2.80;;;28.10;63.50;;;;;;2321511;54;20968;-71
2021/06/12 09:19:20;;;;;;;4.47;3.40;;;28.20;62.80;;;;;;2316375;54;20949;-69
2021/06/12 09:21:50;;;;;;;5.97;3.17;;;28.30;63.80;;;;;;2322060;54;21813;-71
2021/06/12 09:24:35;;;;;;;4.47;3.40;;;28.30;62.60;;;;;;2315212;54;21483;-67
2021/06/12 09:27:02;;;;;;;4.40;3.10;;;28.40;61.50;;;;;;2316945;54;21002;-73
2021/06/12 09:29:51;;;;;;;4.20;3.25;;;28.40;62.50;;;;;;2316378;54;20984;-68
2021/06/12 09:32:21;;;;;;;3.70;2.70;;;28.40;61.00;;;;;;2310486;54;20979;-67
2021/06/12 09:34:51;;;;;;;4.85;3.87;;;28.40;62.10;;;;;;2311649;54;21039;-71
2021/06/12 09:37:20;;;;;;;4.22;3.25;;;28.40;62.30;;;;;;2313431;54;21016;-71
2021/06/12 09:40:12;;;;;;;4.97;4.45;;;28.40;62.50;;;;;;2546391;53;20935;-68
2021/06/12 09:42:48;;;;;;;;;;;28.50;61.30;;;;;;2314882;55;20975;-68
2021/06/12 09:45:23;;;;;;;4.82;3.60;;;28.60;62.10;;;;;;2308194;54;20072;-68
2021/06/12 09:47:50;;;;;;;4.60;3.30;;;28.60;62.40;;;;;;2303187;58;21657;-71
2021/06/12 09:50:20;;;;;;;6.18;4.47;;;28.60;63.10;;;;;;2311061;58;21051;-68
2021/06/12 09:52:48;;;;;;;5.60;4.62;;;28.70;62.70;;;;;;2310542;54;21789;-68
2021/06/12 09:55:22;;;;;;;4.85;3.70;;;28.70;62.80;;;;;;2316691;54;20939;-68
2021/06/12 09:57:50;;;;;;;6.55;4.78;;;28.80;62.20;;;;;;2316679;55;21828;-72
2021/06/12 10:00:16;;;;;;;7.82;5.35;;;28.80;63.10;;;;;;2379219;53;21075;-68
2021/06/12 10:02:47;;;;;;;6.40;5.05;;;28.90;63.10;;;;;;2316355;55;21899;-67
2021/06/12 10:05:14;;;;;;;7.55;4.80;;;28.90;63.00;;;;;;2309817;54;21048;-68
2021/06/12 10:07:40;;;;;;;6.80;4.57;;;29.00;62.90;;;;;;2309859;54;20994;-68
2021/06/12 10:10:09;;;;;;;7.10;5.15;;;29.10;62.80;;;;;;2317000;54;20963;-68
2021/06/12 10:12:35;;;;;;;5.90;4.65;;;29.10;62.60;;;;;;2315846;55;20944;-68
2021/06/12 10:15:02;;;;;;;5.72;4.60;;;29.20;62.60;;;;;;2316544;54;20947;-68
2021/06/12 10:17:30;;;;;;;8.95;5.12;;;29.20;62.40;;;;;;2316905;54;20975;-68
2021/06/12 10:19:57;;;;;;;6.28;5.32;;;29.30;62.60;;;;;;2316401;54;20915;-68
2021/06/12 10:22:24;;;;;;;5.37;4.22;;;29.30;62.50;;;;;;2310683;55;22105;-71
2021/06/12 10:24:50;;;;;;;4.87;3.83;;;29.40;62.60;;;;;;2317560;54;21046;-68
2021/06/12 10:27:16;;;;;;;5.55;3.85;;;29.40;63.40;;;;;;2317114;54;20951;-71
2021/06/12 10:29:44;;;;;;;5.68;4.37;;;29.50;62.90;;;;;;2316757;55;20995;-68
2021/06/12 10:32:11;;;;;;;5.43;4.37;;;29.50;62.40;;;;;;2316357;54;21008;-69
2021/06/12 10:34:39;;;;;;;5.68;4.05;;;29.60;62.10;;;;;;2320606;54;20936;-69
2021/06/12 10:37:07;;;;;;;7.40;4.28;;;29.60;62.10;;;;;;2551879;54;21020;-70
2021/06/12 10:39:35;;;;;;;11.07;4.00;;;29.70;62.10;;;;;;2316952;55;20975;-69
2021/06/12 10:42:23;;;;;;;6.90;3.70;;;29.70;62.00;;;;;;2316429;54;20952;-75
2021/06/12 10:44:50;;;;;;;5.75;4.12;;;29.80;61.00;;;;;;2316772;55;21026;-69
2021/06/12 10:47:41;;;;;;;5.18;3.90;;;29.90;61.70;;;;;;2556690;53;20995;-69
2021/06/12 10:50:36;;;;;;;5.40;4.40;;;30.00;60.00;;;;;;2315918;55;22028;-69
2021/06/12 10:54:55;;;;;;;5.15;4.00;;;30.00;59.60;;;;;;2316239;55;21784;-68
2021/06/12 10:57:21;;;;;;;5.53;4.25;;;30.00;60.30;;;;;;2315685;55;20915;-69
2021/06/12 10:59:51;;;;;;;4.87;3.80;;;30.10;61.60;;;;;;2316132;54;21028;-69
2021/06/12 11:02:26;;;;;;;4.90;3.85;;;30.10;61.00;;;;;;2316520;55;20983;-72
2021/06/12 11:05:03;;;;;;;5.03;3.15;;;30.10;61.40;;;;;;2316964;54;20975;-70
2021/06/12 11:07:34;;;;;;;5.78;3.60;;;30.10;60.60;;;;;;2319799;55;21031;-69
2021/06/12 11:11:30;;;;;;;5.85;3.62;;;30.20;60.80;;;;;;2316753;55;21011;-73
2021/06/12 11:14:47;;;;;;;4.00;2.90;;;30.30;60.00;;;;;;2316450;54;21012;-74
2021/06/12 11:17:14;;;;;;;3.67;2.72;;;30.30;59.90;;;;;;2556804;53;20935;-73
2021/06/12 11:20:29;;;;;;;4.65;3.05;;;30.40;61.40;;;;;;2392340;53;20947;-75
2021/06/12 11:22:57;;;;;;;5.47;2.87;;;30.40;60.40;;;;;;2317515;54;20968;-73
2021/06/12 11:25:36;;;;;;;4.12;2.70;;;30.50;61.10;;;;;;2315528;54;20939;-77
2021/06/12 11:28:22;;;;;;;4.53;2.92;;;30.50;59.50;;;;;;2319618;54;21002;-78
2021/06/12 11:30:49;;;;;;;3.53;2.20;;;30.50;59.10;;;;;;2316684;55;21436;-71
2021/06/12 11:33:17;;;;;;;3.50;2.53;;;30.60;60.70;;;;;;2319222;54;21464;-71
2021/06/12 11:36:01;;;;;;;3.47;2.30;;;30.60;60.50;;;;;;2314617;54;20975;-73
2021/06/12 11:38:38;;;;;;;3.30;2.30;;;30.70;59.30;;;;;;2319970;54;20951;-72
2021/06/12 11:41:15;;;;;;;3.83;2.60;;;30.70;59.50;;;;;;2318663;55;20999;-71
2021/06/12 11:43:49;;;;;;;3.95;2.30;;;30.70;59.60;;;;;;2317050;54;20955;-68
2021/06/12 11:46:19;;;;;;;3.35;2.30;;;30.70;60.10;;;;;;2318090;54;21275;-70
2021/06/12 11:48:47;;;;;;;2.80;1.95;;;30.70;60.70;;;;;;2298751;54;20983;-69
2021/06/12 11:51:31;;;;;;;4.97;2.75;;;30.80;60.50;;;;;;2316747;54;20963;-68
2021/06/12 11:54:31;;;;;;;3.78;2.80;;;30.80;59.50;;;;;;2316764;55;20936;-67
2021/06/12 11:57:01;;;;;;;4.30;2.33;;;30.90;58.80;;;;;;2321113;54;20965;-68
2021/06/12 11:59:30;;;;;;;3.05;2.00;;;31.00;60.10;;;;;;2285839;55;21737;-72
2021/06/12 12:02:07;;;;;;;3.42;1.92;;;31.00;59.70;;;;;;2293626;54;21504;-68
2021/06/12 12:04:49;;;;;;;3.35;1.80;;;31.10;58.60;;;;;;2522601;53;20971;-68
2021/06/12 12:07:16;;;;;;;3.80;2.45;;;31.10;58.90;;;;;;2317616;54;21008;-69
2021/06/12 12:09:45;;;;;;;3.90;2.30;;;31.10;59.50;;;;;;2551742;53;20976;-71
2021/06/12 12:12:16;;;;;;;3.58;1.92;;;31.10;59.40;;;;;;2300586;54;20955;-67
2021/06/12 12:14:44;;;;;;;3.00;1.70;;;31.10;59.10;;;;;;2557168;53;20940;-67
2021/06/12 12:17:27;;;;;;;2.95;1.70;;;31.20;59.30;;;;;;2316625;55;21424;-67
2021/06/12 12:20:12;;;;;;;4.32;1.80;;;31.20;57.80;;;;;;2318423;54;21016;-68
2021/06/12 12:22:48;;;;;;;2.90;1.55;;;31.20;57.30;;;;;;2298370;54;21031;-67
2021/06/12 12:25:16;;;;;;;2.95;1.37;;;31.20;57.70;;;;;;2315695;55;21011;-67
2021/06/12 12:27:44;;;;;;;4.95;1.40;;;31.20;58.20;;;;;;2316323;55;20955;-69
2021/06/12 12:30:10;;;;;;;2.60;1.40;;;31.10;58.10;;;;;;2319525;54;21453;-66
2021/06/12 12:32:44;;;;;;;2.53;1.23;;;31.10;58.00;;;;;;2552166;53;21041;-67
2021/06/12 12:35:17;;;;;;;2.80;1.08;;;31.00;58.00;;;;;;2312098;54;20935;-71
2021/06/12 12:37:43;;;;;;;2.22;1.12;;;31.00;57.90;;;;;;2317617;54;21037;-71
2021/06/12 12:40:16;;;;;;;2.03;1.10;;;30.90;58.20;;;;;;2297075;54;20967;-68
2021/06/12 12:42:42;;;;;;;2.55;1.27;;;30.90;57.10;;;;;;2319252;54;20963;-67
2021/06/12 12:45:11;;;;;;;2.40;1.00;;;30.90;58.00;;;;;;2312472;54;21332;-67
2021/06/12 12:47:37;;;;;;;2.30;1.27;;;30.90;57.70;;;;;;2319285;54;21807;-67
2021/06/12 12:50:05;;;;;;;2.28;1.12;;;31.00;58.00;;;;;;2312835;54;20967;-69
2021/06/12 12:52:31;;;;;;;3.58;0.95;;;31.00;57.90;;;;;;2316462;55;21051;-69
2021/06/12 12:55:06;;;;;;;2.30;0.90;;;31.00;57.80;;;;;;2552518;53;20994;-72
2021/06/12 12:57:48;;;;;;;1.83;1.00;;;31.10;56.70;;;;;;2296928;55;21053;-68
2021/06/12 13:00:18;;;;;;;;;;;31.10;56.20;;;;;;2320023;54;20919;-67
2021/06/12 13:02:44;;;;;;;4.35;1.10;;;31.10;57.30;;;;;;2316706;55;20551;-70
2021/06/12 13:05:13;;;;;;;1.87;0.95;;;31.20;58.20;;;;;;2557773;53;20962;-70
2021/06/12 13:07:39;;;;;;;1.77;0.80;;;31.20;57.70;;;;;;2552557;53;20993;-68
2021/06/12 13:10:16;;;;;;;3.03;0.80;;;31.20;58.00;;;;;;2408993;53;20953;-69
2021/06/12 13:12:57;;;;;;;2.03;0.80;;;31.30;56.50;;;;;;2316195;54;20981;-68